Time;durP1;ratioP1;P1;durP2;ratioP2;P2;SDS_P1;SDS_P2;PMS_P1;PMS_P2;Temp;Humidity;BMP_temperature;BMP_pressure;BME280_temperature;BME280_humidity;BME280_pressure;Samples;Min_cycle;Max_cycle;Signal;HPM_P1;HPM_P2
2024/03/04 00:01:24;;;;;;;75.57;36.93;;;;;;;;;;5054183;28;20555;-72
2024/03/04 00:03:49;;;;;;;77.57;36.30;;;;;;;;;;5071642;28;20187;-73
2024/03/04 00:06:17;;;;;;;78.40;38.57;;;;;;;;;;5082389;28;20186;-72
2024/03/04 00:08:42;;;;;;;87.50;39.30;;;;;;;;;;5070335;28;20205;-71
2024/03/04 00:11:08;;;;;;;83.53;37.77;;;;;;;;;;5060879;28;20201;-72
2024/03/04 00:13:33;;;;;;;79.90;38.03;;;;;;;;;;5070240;28;20189;-72
2024/03/04 00:16:00;;;;;;;78.60;36.97;;;;;;;;;;5065834;28;20497;-72
2024/03/04 00:18:26;;;;;;;77.27;35.90;;;;;;;;;;5050780;28;20201;-72
2024/03/04 00:20:52;;;;;;;76.57;36.30;;;;;;;;;;5069615;28;20246;-72
2024/03/04 00:23:18;;;;;;;81.27;36.63;;;;;;;;;;5066269;28;20195;-72
2024/03/04 00:25:43;;;;;;;87.43;37.87;;;;;;;;;;5051475;28;20197;-72
2024/03/04 00:28:09;;;;;;;77.23;34.87;;;;;;;;;;5075189;28;20612;-72
2024/03/04 00:30:37;;;;;;;78.30;36.00;;;;;;;;;;5067619;28;20193;-73
2024/03/04 00:33:03;;;;;;;78.80;38.73;;;;;;;;;;5069750;28;20627;-72
2024/03/04 00:35:29;;;;;;;85.33;39.50;;;;;;;;;;5047752;28;20312;-72
2024/03/04 00:37:54;;;;;;;86.97;40.67;;;;;;;;;;5065668;28;20242;-72
2024/03/04 00:40:20;;;;;;;93.57;40.50;;;;;;;;;;5046322;28;20197;-72
2024/03/04 00:42:46;;;;;;;86.60;38.67;;;;;;;;;;5058893;28;20404;-72
2024/03/04 00:45:12;;;;;;;80.40;39.97;;;;;;;;;;5070771;28;20188;-72
2024/03/04 00:47:37;;;;;;;87.70;41.50;;;;;;;;;;5065445;28;20185;-72
2024/03/04 00:50:03;;;;;;;80.20;39.47;;;;;;;;;;5064452;28;20532;-73
2024/03/04 00:52:29;;;;;;;80.73;38.17;;;;;;;;;;5061199;28;20181;-73
2024/03/04 00:54:54;;;;;;;79.70;37.10;;;;;;;;;;5073518;28;20666;-73
2024/03/04 00:57:21;;;;;;;78.00;38.30;;;;;;;;;;5062582;28;20208;-73
2024/03/04 00:59:46;;;;;;;90.73;39.53;;;;;;;;;;5067285;28;20248;-73
2024/03/04 01:02:12;;;;;;;79.40;38.87;;;;;;;;;;5067746;28;20244;-72
2024/03/04 01:04:39;;;;;;;83.97;38.37;;;;;;;;;;5067828;28;20495;-73
2024/03/04 01:07:04;;;;;;;85.90;38.47;;;;;;;;;;5067263;28;20906;-72
2024/03/04 01:09:30;;;;;;;88.70;39.67;;;;;;;;;;5066494;28;20192;-73
2024/03/04 01:11:55;;;;;;;87.33;41.63;;;;;;;;;;5064631;28;20196;-73
2024/03/04 01:14:21;;;;;;;95.47;42.40;;;;;;;;;;5055734;28;20194;-73
2024/03/04 01:16:49;;;;;;;92.03;43.53;;;;;;;;;;5033822;28;20224;-73
2024/03/04 01:19:19;;;;;;;110.57;44.80;;;;;;;;;;5056665;28;20239;-73
2024/03/04 01:21:44;;;;;;;108.93;44.27;;;;;;;;;;5060073;28;20189;-72
2024/03/04 01:24:11;;;;;;;94.87;43.77;;;;;;;;;;5069489;28;20250;-73
2024/03/04 01:26:37;;;;;;;101.47;44.50;;;;;;;;;;5068061;28;20231;-73
2024/03/04 01:29:08;;;;;;;95.57;44.53;;;;;;;;;;5056406;28;20193;-73
2024/03/04 01:31:34;;;;;;;93.03;41.23;;;;;;;;;;5061387;28;20195;-73
2024/03/04 01:33:59;;;;;;;100.37;41.60;;;;;;;;;;5059177;28;20197;-73
2024/03/04 01:36:25;;;;;;;94.23;41.77;;;;;;;;;;5068587;28;20188;-73
2024/03/04 01:38:50;;;;;;;98.40;41.47;;;;;;;;;;5068399;28;20213;-73
2024/03/04 01:41:15;;;;;;;96.77;44.93;;;;;;;;;;5050703;28;20287;-73
2024/03/04 01:43:41;;;;;;;101.53;45.37;;;;;;;;;;5070424;28;20597;-73
2024/03/04 01:46:08;;;;;;;104.60;44.10;;;;;;;;;;5070610;28;20555;-71
2024/03/04 01:48:34;;;;;;;95.10;42.13;;;;;;;;;;5067590;28;20197;-71
2024/03/04 01:51:00;;;;;;;87.70;41.33;;;;;;;;;;5066861;28;20192;-71
2024/03/04 01:53:27;;;;;;;96.93;42.73;;;;;;;;;;5070970;28;20193;-72
2024/03/04 01:55:57;;;;;;;95.00;41.20;;;;;;;;;;5069181;28;20218;-72
2024/03/04 01:58:24;;;;;;;102.03;43.07;;;;;;;;;;5069975;28;20196;-72
2024/03/04 02:00:50;;;;;;;96.37;42.67;;;;;;;;;;5070550;28;20295;-72
2024/03/04 02:03:17;;;;;;;94.47;43.00;;;;;;;;;;5062879;28;20275;-72
2024/03/04 02:05:45;;;;;;;97.03;42.50;;;;;;;;;;5055839;28;20181;-72
2024/03/04 02:08:12;;;;;;;94.37;41.70;;;;;;;;;;5055792;28;20227;-72
2024/03/04 02:10:38;;;;;;;97.97;42.73;;;;;;;;;;5069671;28;20192;-72
2024/03/04 02:13:04;;;;;;;84.77;37.97;;;;;;;;;;5059168;28;20189;-72
2024/03/04 02:15:34;;;;;;;87.60;38.20;;;;;;;;;;5065948;28;20201;-71
2024/03/04 02:18:00;;;;;;;91.63;37.93;;;;;;;;;;5059024;28;20190;-72
2024/03/04 02:20:27;;;;;;;105.33;39.67;;;;;;;;;;5064754;28;20235;-72
2024/03/04 02:22:54;;;;;;;102.00;38.03;;;;;;;;;;5042622;28;20250;-72
2024/03/04 02:25:22;;;;;;;108.20;37.23;;;;;;;;;;5056797;28;20261;-72
2024/03/04 02:27:48;;;;;;;109.10;38.83;;;;;;;;;;5067749;28;20185;-72
2024/03/04 02:30:13;;;;;;;99.73;38.23;;;;;;;;;;5062889;28;20181;-72
2024/03/04 02:32:40;;;;;;;112.47;40.20;;;;;;;;;;5067384;28;20632;-72
2024/03/04 02:35:07;;;;;;;112.73;39.30;;;;;;;;;;5061971;28;20233;-72
2024/03/04 02:37:35;;;;;;;125.00;42.67;;;;;;;;;;5061152;28;20188;-72
2024/03/04 02:40:01;;;;;;;134.70;42.35;;;;;;;;;;5060642;28;20205;-72
2024/03/04 02:42:27;;;;;;;119.13;44.25;;;;;;;;;;5058475;28;20200;-72
2024/03/04 02:44:52;;;;;;;112.97;43.67;;;;;;;;;;5059587;28;20227;-72
2024/03/04 02:47:17;;;;;;;120.72;46.25;;;;;;;;;;5068182;28;20203;-72
2024/03/04 02:49:43;;;;;;;122.32;44.92;;;;;;;;;;5064805;28;20185;-71
2024/03/04 02:52:09;;;;;;;111.05;45.13;;;;;;;;;;5065223;28;20197;-72
2024/03/04 02:54:34;;;;;;;124.28;47.70;;;;;;;;;;5059386;28;20193;-72
2024/03/04 02:56:59;;;;;;;121.82;47.38;;;;;;;;;;5066404;28;20193;-72
2024/03/04 02:59:25;;;;;;;129.10;47.53;;;;;;;;;;5071661;28;20664;-72
2024/03/04 03:01:50;;;;;;;132.20;49.55;;;;;;;;;;5070880;28;20193;-72
2024/03/04 03:04:16;;;;;;;154.05;51.33;;;;;;;;;;5062254;28;20193;-72
2024/03/04 03:06:45;;;;;;;140.63;50.80;;;;;;;;;;5057203;28;20204;-72
2024/03/04 03:09:13;;;;;;;128.57;48.83;;;;;;;;;;5063991;28;20189;-72
2024/03/04 03:11:39;;;;;;;138.35;52.05;;;;;;;;;;5062148;28;20269;-72
2024/03/04 03:14:05;;;;;;;139.35;50.40;;;;;;;;;;5063055;28;20616;-72
2024/03/04 03:16:30;;;;;;;147.82;50.17;;;;;;;;;;5054210;28;20205;-72
2024/03/04 03:18:59;;;;;;;141.88;48.80;;;;;;;;;;5055876;28;20220;-71
2024/03/04 03:21:26;;;;;;;157.07;50.80;;;;;;;;;;5061861;28;20280;-71
2024/03/04 03:23:52;;;;;;;153.57;50.70;;;;;;;;;;5067808;28;20189;-72
2024/03/04 03:26:18;;;;;;;158.35;49.45;;;;;;;;;;5060122;28;20328;-71
2024/03/04 03:28:44;;;;;;;142.68;47.20;;;;;;;;;;5055392;28;20200;-72
2024/03/04 03:31:10;;;;;;;150.60;50.35;;;;;;;;;;5062672;28;20670;-71
2024/03/04 03:33:36;;;;;;;169.70;50.75;;;;;;;;;;5065366;28;20189;-71
2024/03/04 03:36:03;;;;;;;160.60;49.45;;;;;;;;;;5051217;28;20225;-70
2024/03/04 03:38:28;;;;;;;151.38;47.10;;;;;;;;;;5062165;28;20275;-71
2024/03/04 03:40:55;;;;;;;166.25;49.75;;;;;;;;;;5065606;28;20287;-71
2024/03/04 03:43:20;;;;;;;163.63;48.50;;;;;;;;;;5066530;28;20362;-71
2024/03/04 03:45:47;;;;;;;155.07;49.55;;;;;;;;;;5049405;28;20689;-72
2024/03/04 03:48:16;;;;;;;185.07;51.45;;;;;;;;;;5071170;28;20196;-72
2024/03/04 03:50:41;;;;;;;163.38;49.10;;;;;;;;;;5052358;28;20195;-72
2024/03/04 03:53:07;;;;;;;146.35;47.83;;;;;;;;;;5068887;28;20193;-72
2024/03/04 03:55:33;;;;;;;154.48;49.13;;;;;;;;;;5068966;28;20192;-72
2024/03/04 03:57:58;;;;;;;171.63;50.90;;;;;;;;;;5039435;28;20192;-70
2024/03/04 04:00:25;;;;;;;150.07;47.75;;;;;;;;;;5051103;28;20201;-71
2024/03/04 04:02:50;;;;;;;148.95;47.63;;;;;;;;;;5058860;28;20414;-71
2024/03/04 04:05:15;;;;;;;156.43;47.47;;;;;;;;;;5058969;28;20189;-71
2024/03/04 04:07:41;;;;;;;153.13;47.67;;;;;;;;;;5066565;28;20196;-71
2024/03/04 04:10:06;;;;;;;142.48;46.78;;;;;;;;;;5060115;28;20539;-71
2024/03/04 04:12:32;;;;;;;146.18;46.78;;;;;;;;;;5058821;28;20217;-71
2024/03/04 04:14:57;;;;;;;153.75;48.00;;;;;;;;;;5063715;28;20277;-71
2024/03/04 04:17:23;;;;;;;147.77;47.33;;;;;;;;;;5055006;28;20177;-71
2024/03/04 04:19:48;;;;;;;143.80;47.25;;;;;;;;;;5062355;28;20276;-71
2024/03/04 04:22:14;;;;;;;134.98;45.10;;;;;;;;;;5064623;28;20567;-71
2024/03/04 04:24:40;;;;;;;145.77;46.08;;;;;;;;;;5064202;28;20659;-71
2024/03/04 04:27:06;;;;;;;122.13;43.80;;;;;;;;;;5061652;28;20189;-71
2024/03/04 04:29:33;;;;;;;131.90;44.20;;;;;;;;;;5065083;28;20185;-71
2024/03/04 04:31:59;;;;;;;128.93;43.63;;;;;;;;;;5070119;28;20193;-72
2024/03/04 04:34:25;;;;;;;119.50;40.97;;;;;;;;;;5055578;28;20239;-71
2024/03/04 04:36:50;;;;;;;114.70;42.13;;;;;;;;;;5061837;28;20193;-72
2024/03/04 04:39:17;;;;;;;107.07;40.20;;;;;;;;;;5063856;28;20295;-71
2024/03/04 04:41:43;;;;;;;111.10;40.47;;;;;;;;;;5071406;28;20202;-72
2024/03/04 04:44:08;;;;;;;111.47;41.45;;;;;;;;;;5062062;28;20198;-71
2024/03/04 04:46:33;;;;;;;114.90;41.08;;;;;;;;;;5063751;28;20540;-72
2024/03/04 04:48:59;;;;;;;116.55;41.28;;;;;;;;;;5067417;28;20559;-71
2024/03/04 04:51:25;;;;;;;118.63;41.97;;;;;;;;;;5060706;28;20196;-71
2024/03/04 04:53:50;;;;;;;117.78;41.45;;;;;;;;;;5065869;28;20622;-71
2024/03/04 04:56:19;;;;;;;114.20;40.47;;;;;;;;;;5062534;28;20276;-71
2024/03/04 04:58:44;;;;;;;119.47;41.45;;;;;;;;;;5067932;28;20185;-72
2024/03/04 05:01:10;;;;;;;116.55;41.58;;;;;;;;;;5059553;28;20189;-71
2024/03/04 05:03:35;;;;;;;122.90;41.78;;;;;;;;;;5067457;28;20205;-71
2024/03/04 05:06:01;;;;;;;125.63;43.45;;;;;;;;;;5062186;28;20271;-71
2024/03/04 05:08:27;;;;;;;114.88;41.50;;;;;;;;;;5068989;28;20216;-71
2024/03/04 05:10:53;;;;;;;120.18;41.55;;;;;;;;;;5069263;28;20660;-71
2024/03/04 05:13:20;;;;;;;124.43;42.92;;;;;;;;;;5065671;28;20640;-72
2024/03/04 05:15:46;;;;;;;122.38;42.03;;;;;;;;;;5053492;28;20216;-72
2024/03/04 05:18:12;;;;;;;127.65;42.47;;;;;;;;;;5062950;28;20184;-71
2024/03/04 05:20:37;;;;;;;124.05;42.50;;;;;;;;;;5064382;28;20292;-71
2024/03/04 05:23:03;;;;;;;108.43;40.10;;;;;;;;;;5065307;28;20243;-71
2024/03/04 05:25:29;;;;;;;119.63;40.25;;;;;;;;;;5064496;28;20189;-71
2024/03/04 05:27:55;;;;;;;120.22;41.90;;;;;;;;;;5065830;28;20196;-71
2024/03/04 05:30:20;;;;;;;120.65;40.13;;;;;;;;;;5067659;28;20230;-71
2024/03/04 05:32:46;;;;;;;110.28;40.17;;;;;;;;;;5056466;28;20241;-71
2024/03/04 05:35:11;;;;;;;116.32;41.58;;;;;;;;;;5059357;28;20636;-71
2024/03/04 05:37:37;;;;;;;118.03;41.80;;;;;;;;;;5044128;28;20193;-71
2024/03/04 05:40:09;;;;;;;122.35;41.25;;;;;;;;;;5068188;28;20246;-71
2024/03/04 05:42:37;;;;;;;119.82;42.72;;;;;;;;;;5061513;28;20197;-71
2024/03/04 05:45:03;;;;;;;133.45;42.55;;;;;;;;;;5059604;28;20243;-72
2024/03/04 05:47:28;;;;;;;134.43;44.28;;;;;;;;;;5063344;28;20193;-72
2024/03/04 05:49:54;;;;;;;121.18;44.25;;;;;;;;;;5065767;28;20181;-72
2024/03/04 05:52:19;;;;;;;121.15;42.40;;;;;;;;;;5055993;28;20200;-72
2024/03/04 05:54:45;;;;;;;115.50;42.08;;;;;;;;;;5065421;28;20184;-72
2024/03/04 05:57:11;;;;;;;137.80;43.53;;;;;;;;;;5062497;28;20197;-72
2024/03/04 05:59:37;;;;;;;122.07;43.17;;;;;;;;;;5060849;28;20307;-72
2024/03/04 06:02:03;;;;;;;114.25;42.65;;;;;;;;;;5063926;28;20630;-72
2024/03/04 06:04:28;;;;;;;134.75;44.05;;;;;;;;;;5066553;28;20188;-72
2024/03/04 06:06:54;;;;;;;117.80;40.83;;;;;;;;;;5057929;28;20208;-72
2024/03/04 06:09:21;;;;;;;110.10;40.55;;;;;;;;;;5054429;28;20182;-72
2024/03/04 06:11:47;;;;;;;122.15;41.10;;;;;;;;;;5053402;28;20209;-72
2024/03/04 06:14:12;;;;;;;118.20;41.40;;;;;;;;;;5059320;28;20208;-72
2024/03/04 06:16:38;;;;;;;118.82;41.40;;;;;;;;;;5067833;28;20211;-72
2024/03/04 06:19:03;;;;;;;122.32;42.35;;;;;;;;;;5065527;28;20239;-72
2024/03/04 06:21:29;;;;;;;117.80;41.50;;;;;;;;;;5058880;28;20193;-72
2024/03/04 06:23:54;;;;;;;106.32;39.65;;;;;;;;;;5066549;28;20189;-72
2024/03/04 06:26:19;;;;;;;122.82;42.17;;;;;;;;;;5050078;28;20741;-72
2024/03/04 06:28:45;;;;;;;112.75;39.90;;;;;;;;;;5063595;28;20199;-72
2024/03/04 06:31:11;;;;;;;120.88;41.53;;;;;;;;;;5057658;28;20210;-72
2024/03/04 06:33:37;;;;;;;131.82;42.83;;;;;;;;;;5054878;28;20408;-72
2024/03/04 06:36:03;;;;;;;126.40;43.08;;;;;;;;;;5060773;28;20225;-72
2024/03/04 06:38:30;;;;;;;126.68;43.30;;;;;;;;;;5058423;28;20272;-72
2024/03/04 06:40:56;;;;;;;128.57;45.30;;;;;;;;;;5066965;28;20647;-72
2024/03/04 06:43:21;;;;;;;133.95;44.50;;;;;;;;;;5059710;28;20205;-72
2024/03/04 06:45:46;;;;;;;136.50;43.95;;;;;;;;;;5062700;28;21426;-72
2024/03/04 06:48:13;;;;;;;141.30;46.05;;;;;;;;;;5064142;28;20612;-72
2024/03/04 06:50:38;;;;;;;142.40;45.55;;;;;;;;;;5059499;28;20193;-72
2024/03/04 06:53:04;;;;;;;137.32;44.83;;;;;;;;;;5059757;28;20187;-72
2024/03/04 06:55:29;;;;;;;134.13;44.90;;;;;;;;;;5067239;28;20184;-72
2024/03/04 06:57:55;;;;;;;135.45;43.33;;;;;;;;;;5067142;28;20600;-71
2024/03/04 07:00:21;;;;;;;152.68;46.92;;;;;;;;;;5065760;28;20652;-71
2024/03/04 07:02:46;;;;;;;146.10;44.63;;;;;;;;;;5060410;28;20188;-71
2024/03/04 07:05:12;;;;;;;141.20;45.22;;;;;;;;;;5051646;28;20871;-71
2024/03/04 07:07:37;;;;;;;135.57;43.47;;;;;;;;;;5069002;28;20181;-72
2024/03/04 07:10:03;;;;;;;138.10;45.35;;;;;;;;;;5046764;28;20517;-72
2024/03/04 07:12:28;;;;;;;132.07;44.00;;;;;;;;;;5065618;28;20189;-72
2024/03/04 07:14:54;;;;;;;140.57;45.70;;;;;;;;;;5071293;28;20647;-72
2024/03/04 07:17:19;;;;;;;125.28;41.58;;;;;;;;;;5068547;28;20195;-72
2024/03/04 07:19:45;;;;;;;107.75;40.45;;;;;;;;;;5069776;28;20297;-71
2024/03/04 07:22:10;;;;;;;105.18;40.15;;;;;;;;;;5070168;28;20203;-71
2024/03/04 07:24:35;;;;;;;105.78;38.60;;;;;;;;;;5064372;28;20711;-72
2024/03/04 07:27:01;;;;;;;102.30;36.47;;;;;;;;;;5030697;28;20196;-70
2024/03/04 07:29:26;;;;;;;90.05;36.10;;;;;;;;;;5068964;28;20192;-71
2024/03/04 07:31:52;;;;;;;96.15;36.35;;;;;;;;;;5037545;28;20212;-70
2024/03/04 07:34:17;;;;;;;90.82;37.50;;;;;;;;;;5067279;28;20231;-72
2024/03/04 07:36:43;;;;;;;91.43;37.55;;;;;;;;;;5068093;28;20212;-72
2024/03/04 07:39:08;;;;;;;93.80;38.15;;;;;;;;;;5069093;28;20424;-72
2024/03/04 07:41:34;;;;;;;101.82;40.55;;;;;;;;;;5068064;28;20263;-72
2024/03/04 07:43:59;;;;;;;96.82;38.47;;;;;;;;;;5067982;28;20271;-71
2024/03/04 07:46:24;;;;;;;98.72;37.17;;;;;;;;;;5056927;28;20182;-71
2024/03/04 07:48:50;;;;;;;104.20;37.90;;;;;;;;;;5060822;28;20628;-71
2024/03/04 07:51:15;;;;;;;94.35;36.47;;;;;;;;;;5042580;28;20200;-71
2024/03/04 07:53:41;;;;;;;97.47;38.05;;;;;;;;;;5054884;28;20185;-71
2024/03/04 07:56:06;;;;;;;94.15;36.92;;;;;;;;;;5069060;28;20192;-71
2024/03/04 07:58:33;;;;;;;92.47;36.88;;;;;;;;;;5065855;28;20533;-71
2024/03/04 08:00:59;;;;;;;100.50;36.45;;;;;;;;;;5065649;28;20253;-71
2024/03/04 08:03:24;;;;;;;88.30;34.78;;;;;;;;;;5069816;28;20243;-71
2024/03/04 08:05:50;;;;;;;89.47;35.28;;;;;;;;;;5076057;28;20663;-71
2024/03/04 08:08:15;;;;;;;79.82;34.25;;;;;;;;;;5067634;28;20212;-71
2024/03/04 08:10:40;;;;;;;90.03;35.60;;;;;;;;;;5067248;28;20183;-71
2024/03/04 08:13:06;;;;;;;87.63;34.90;;;;;;;;;;5070311;28;20200;-71
2024/03/04 08:15:31;;;;;;;75.53;32.20;;;;;;;;;;5082801;28;20197;-71
2024/03/04 08:17:57;;;;;;;78.20;31.35;;;;;;;;;;5078553;28;20203;-71
2024/03/04 08:20:23;;;;;;;77.10;32.35;;;;;;;;;;5068387;28;20682;-71
2024/03/04 08:22:49;;;;;;;70.75;30.63;;;;;;;;;;5052112;28;20647;-71
2024/03/04 08:25:16;;;;;;;64.00;30.40;;;;;;;;;;5075276;28;20181;-72
2024/03/04 08:27:42;;;;;;;66.15;28.45;;;;;;;;;;5082871;28;20199;-72
2024/03/04 08:30:09;;;;;;;63.90;28.77;;;;;;;;;;5066189;28;20647;-72
2024/03/04 08:32:35;;;;;;;65.63;29.67;;;;;;;;;;5063387;28;20234;-72
2024/03/04 08:35:00;;;;;;;62.00;29.30;;;;;;;;;;5055930;28;20585;-72
2024/03/04 08:37:27;;;;;;;67.90;28.30;;;;;;;;;;5079384;28;20661;-72
2024/03/04 08:39:52;;;;;;;62.17;28.80;;;;;;;;;;5068995;28;20261;-72
2024/03/04 08:42:18;;;;;;;57.38;27.30;;;;;;;;;;5043689;28;20197;-71
2024/03/04 08:44:43;;;;;;;60.10;26.95;;;;;;;;;;5062610;28;20215;-71
2024/03/04 08:47:09;;;;;;;63.83;28.90;;;;;;;;;;5047606;28;20537;-71
2024/03/04 08:49:35;;;;;;;62.70;28.90;;;;;;;;;;5065231;28;20204;-71
2024/03/04 08:52:01;;;;;;;59.67;27.55;;;;;;;;;;5067698;28;20188;-71
2024/03/04 08:54:29;;;;;;;62.22;28.85;;;;;;;;;;5063738;28;20185;-72
2024/03/04 08:56:54;;;;;;;65.18;29.42;;;;;;;;;;5059055;28;20239;-72
2024/03/04 08:59:20;;;;;;;61.15;27.58;;;;;;;;;;5082541;28;20325;-72
2024/03/04 09:01:45;;;;;;;65.30;29.27;;;;;;;;;;5067736;28;20184;-71
2024/03/04 09:04:11;;;;;;;64.55;29.02;;;;;;;;;;5066754;28;20199;-71
2024/03/04 09:06:36;;;;;;;61.95;28.67;;;;;;;;;;5061898;28;20653;-71
2024/03/04 09:09:02;;;;;;;61.75;27.48;;;;;;;;;;5065092;28;20212;-71
2024/03/04 09:11:27;;;;;;;58.47;26.45;;;;;;;;;;5067869;28;20215;-71
2024/03/04 09:13:55;;;;;;;59.63;27.25;;;;;;;;;;5069495;28;20192;-71
2024/03/04 09:16:21;;;;;;;59.47;27.63;;;;;;;;;;5068302;28;20357;-73
2024/03/04 09:18:46;;;;;;;55.92;26.20;;;;;;;;;;5055976;28;20216;-73
2024/03/04 09:21:13;;;;;;;62.10;26.55;;;;;;;;;;5069578;28;20211;-73
2024/03/04 09:23:39;;;;;;;52.03;25.98;;;;;;;;;;5059604;28;20180;-72
2024/03/04 09:26:08;;;;;;;57.42;26.60;;;;;;;;;;5069893;28;20191;-73
2024/03/04 09:28:34;;;;;;;53.05;23.83;;;;;;;;;;5066719;28;20181;-72
2024/03/04 09:30:59;;;;;;;59.13;27.17;;;;;;;;;;5062458;28;20191;-72
2024/03/04 09:33:25;;;;;;;55.65;24.52;;;;;;;;;;5068543;28;20184;-72
2024/03/04 09:35:51;;;;;;;55.35;24.25;;;;;;;;;;5053098;28;20263;-72
2024/03/04 09:38:16;;;;;;;54.10;24.17;;;;;;;;;;5059075;28;20189;-72
2024/03/04 09:40:45;;;;;;;50.55;25.15;;;;;;;;;;5059763;28;20254;-72
2024/03/04 09:43:12;;;;;;;52.78;23.85;;;;;;;;;;5068807;28;20678;-72
2024/03/04 09:45:39;;;;;;;51.90;23.98;;;;;;;;;;5065108;28;20268;-72
2024/03/04 09:48:08;;;;;;;50.50;23.73;;;;;;;;;;5069254;28;20188;-72
2024/03/04 09:50:34;;;;;;;53.28;23.48;;;;;;;;;;5067877;28;20208;-72
2024/03/04 09:53:01;;;;;;;50.47;23.83;;;;;;;;;;5062783;28;20193;-72
2024/03/04 09:55:27;;;;;;;48.47;22.90;;;;;;;;;;5069081;28;20655;-72
2024/03/04 09:57:53;;;;;;;52.92;24.08;;;;;;;;;;5068196;28;20188;-72
2024/03/04 10:00:20;;;;;;;49.83;21.85;;;;;;;;;;5059673;28;20586;-72
2024/03/04 10:02:46;;;;;;;46.83;21.90;;;;;;;;;;5057073;28;20228;-72
2024/03/04 10:05:13;;;;;;;49.65;22.63;;;;;;;;;;5055370;28;20262;-72
2024/03/04 10:07:40;;;;;;;46.72;21.73;;;;;;;;;;5040117;28;20181;-72
2024/03/04 10:10:08;;;;;;;50.33;23.40;;;;;;;;;;5067670;28;20216;-72
2024/03/04 10:12:33;;;;;;;50.78;22.58;;;;;;;;;;5067577;28;20663;-72
2024/03/04 10:15:07;;;;;;;50.35;23.83;;;;;;;;;;5056745;28;20192;-72
2024/03/04 10:17:33;;;;;;;49.33;20.85;;;;;;;;;;5073593;28;20283;-72
2024/03/04 10:20:07;;;;;;;48.50;21.42;;;;;;;;;;5070814;28;20346;-72
2024/03/04 10:22:34;;;;;;;45.78;20.45;;;;;;;;;;5069618;28;20242;-72
2024/03/04 10:25:13;;;;;;;50.05;21.10;;;;;;;;;;5072102;28;20193;-72
2024/03/04 10:27:44;;;;;;;51.75;22.63;;;;;;;;;;5060395;28;20208;-72
2024/03/04 10:30:24;;;;;;;45.78;20.45;;;;;;;;;;5071904;28;20200;-71
2024/03/04 10:32:57;;;;;;;50.58;20.92;;;;;;;;;;5067321;28;20191;-71
2024/03/04 10:35:23;;;;;;;44.47;20.15;;;;;;;;;;5054335;28;20312;-72
2024/03/04 10:37:50;;;;;;;53.10;21.25;;;;;;;;;;5067842;28;20279;-72
2024/03/04 10:40:20;;;;;;;53.20;22.35;;;;;;;;;;5059630;28;20349;-72
2024/03/04 10:42:47;;;;;;;52.47;23.52;;;;;;;;;;5055648;28;20684;-71
2024/03/04 10:45:13;;;;;;;49.45;21.33;;;;;;;;;;5071811;28;20180;-71
2024/03/04 10:47:44;;;;;;;50.83;23.33;;;;;;;;;;5059010;28;20177;-71
2024/03/04 10:50:14;;;;;;;45.15;20.60;;;;;;;;;;5055914;28;20689;-71
2024/03/04 10:52:40;;;;;;;46.58;19.30;;;;;;;;;;5071433;28;20185;-71
2024/03/04 10:55:06;;;;;;;41.05;20.10;;;;;;;;;;5071703;28;20199;-71
2024/03/04 10:57:33;;;;;;;44.42;19.00;;;;;;;;;;5062867;28;20192;-72
2024/03/04 11:00:25;;;;;;;43.72;19.88;;;;;;;;;;5063904;28;20228;-71
2024/03/04 11:03:01;;;;;;;40.53;18.50;;;;;;;;;;5053021;28;20275;-71
2024/03/04 11:05:30;;;;;;;44.60;18.90;;;;;;;;;;5055817;28;20208;-70
2024/03/04 11:08:15;;;;;;;45.45;19.20;;;;;;;;;;5049928;28;20532;-71
2024/03/04 11:10:47;;;;;;;41.45;17.83;;;;;;;;;;5064209;28;20550;-71
2024/03/04 11:13:25;;;;;;;32.58;15.93;;;;;;;;;;5065031;28;20196;-71
2024/03/04 11:16:02;;;;;;;33.60;16.08;;;;;;;;;;5070116;28;20188;-71
2024/03/04 11:18:49;;;;;;;35.75;16.75;;;;;;;;;;5066499;28;20247;-71
2024/03/04 11:21:17;;;;;;;34.63;15.93;;;;;;;;;;5061875;28;20213;-70
2024/03/04 11:23:46;;;;;;;35.70;16.70;;;;;;;;;;5066767;28;20501;-71
2024/03/04 11:26:12;;;;;;;32.13;15.10;;;;;;;;;;5062073;28;20211;-71
2024/03/04 11:28:39;;;;;;;30.75;14.70;;;;;;;;;;5056952;28;20197;-71
2024/03/04 11:31:09;;;;;;;35.63;15.02;;;;;;;;;;5063460;28;20181;-71
2024/03/04 11:33:43;;;;;;;35.97;15.77;;;;;;;;;;5060740;28;20264;-71
2024/03/04 11:36:10;;;;;;;32.25;14.85;;;;;;;;;;5062260;28;20224;-71
2024/03/04 11:38:42;;;;;;;28.95;14.57;;;;;;;;;;5069668;28;20260;-71
2024/03/04 11:41:09;;;;;;;30.75;14.95;;;;;;;;;;5052389;28;20553;-71
2024/03/04 11:43:48;;;;;;;29.95;14.30;;;;;;;;;;5053552;28;20260;-71
2024/03/04 11:46:17;;;;;;;30.52;14.65;;;;;;;;;;5058088;28;20274;-72
2024/03/04 11:48:43;;;;;;;30.67;13.90;;;;;;;;;;5069573;28;20555;-71
2024/03/04 11:51:09;;;;;;;31.25;15.48;;;;;;;;;;5069084;28;20282;-71
2024/03/04 11:53:37;;;;;;;33.00;15.88;;;;;;;;;;5069623;28;20596;-72
2024/03/04 11:56:03;;;;;;;38.47;15.48;;;;;;;;;;5063735;28;20648;-71
2024/03/04 11:58:30;;;;;;;32.85;14.43;;;;;;;;;;5050048;28;20285;-71
2024/03/04 12:00:57;;;;;;;31.80;14.88;;;;;;;;;;5067069;28;24106;-71
2024/03/04 12:03:23;;;;;;;28.67;15.00;;;;;;;;;;5069467;28;20196;-71
2024/03/04 12:05:48;;;;;;;33.63;14.60;;;;;;;;;;5067158;28;20275;-71
2024/03/04 12:08:14;;;;;;;30.38;15.13;;;;;;;;;;5068154;28;20220;-71
2024/03/04 12:10:40;;;;;;;32.33;15.07;;;;;;;;;;5073824;28;20188;-72
2024/03/04 12:13:05;;;;;;;30.15;14.98;;;;;;;;;;5069969;28;20177;-72
2024/03/04 12:15:31;;;;;;;35.97;15.38;;;;;;;;;;5064989;28;20243;-71
2024/03/04 12:17:56;;;;;;;33.08;15.63;;;;;;;;;;5068363;28;20196;-71
2024/03/04 12:20:24;;;;;;;32.90;14.82;;;;;;;;;;5068831;28;20630;-71
2024/03/04 12:22:52;;;;;;;32.65;14.95;;;;;;;;;;5069111;28;20195;-72
2024/03/04 12:25:22;;;;;;;27.95;15.48;;;;;;;;;;5069925;28;20287;-72
2024/03/04 12:27:53;;;;;;;31.60;14.82;;;;;;;;;;5047699;28;20208;-72
2024/03/04 12:30:19;;;;;;;28.25;14.50;;;;;;;;;;5065622;28;20263;-73
2024/03/04 12:32:50;;;;;;;28.80;14.85;;;;;;;;;;5061812;28;20185;-71
2024/03/04 12:35:23;;;;;;;30.83;15.15;;;;;;;;;;5068383;28;20688;-72
2024/03/04 12:37:53;;;;;;;28.63;14.35;;;;;;;;;;5057864;28;20244;-72
2024/03/04 12:40:25;;;;;;;29.58;14.32;;;;;;;;;;5054777;28;20517;-72
2024/03/04 12:42:55;;;;;;;31.35;13.77;;;;;;;;;;5061153;28;20275;-72
2024/03/04 12:45:22;;;;;;;23.63;13.30;;;;;;;;;;5061212;28;20221;-72
2024/03/04 12:47:51;;;;;;;22.08;11.73;;;;;;;;;;5060215;28;20296;-72
2024/03/04 12:50:17;;;;;;;25.65;12.52;;;;;;;;;;5068277;28;20181;-72
2024/03/04 12:52:43;;;;;;;25.05;11.30;;;;;;;;;;5067754;28;20180;-72
2024/03/04 12:55:14;;;;;;;22.00;11.18;;;;;;;;;;5067790;28;20271;-73
2024/03/04 12:57:40;;;;;;;20.40;11.45;;;;;;;;;;5054659;28;20184;-72
2024/03/04 13:00:12;;;;;;;19.45;10.70;;;;;;;;;;5056119;28;20223;-72
2024/03/04 13:02:44;;;;;;;17.77;9.48;;;;;;;;;;5065168;28;20612;-72
2024/03/04 13:05:11;;;;;;;15.25;8.63;;;;;;;;;;5058931;28;20270;-72
2024/03/04 13:07:37;;;;;;;15.40;8.20;;;;;;;;;;5068316;28;20191;-72
2024/03/04 13:10:07;;;;;;;18.48;8.50;;;;;;;;;;5066687;28;20278;-72
2024/03/04 13:12:40;;;;;;;15.30;8.25;;;;;;;;;;5059154;28;20181;-72
2024/03/04 13:15:08;;;;;;;15.98;8.10;;;;;;;;;;5068736;28;20189;-72
2024/03/04 13:17:34;;;;;;;11.85;7.03;;;;;;;;;;5069183;28;20195;-72
2024/03/04 13:20:10;;;;;;;12.40;7.20;;;;;;;;;;5069250;28;20204;-72
2024/03/04 13:22:40;;;;;;;15.48;8.05;;;;;;;;;;5059241;28;20198;-72
2024/03/04 13:25:06;;;;;;;16.02;7.63;;;;;;;;;;5067111;28;20249;-72
2024/03/04 13:27:35;;;;;;;13.57;6.93;;;;;;;;;;5064190;28;20493;-72
2024/03/04 13:30:04;;;;;;;13.95;7.43;;;;;;;;;;5066320;28;20191;-72
2024/03/04 13:32:30;;;;;;;14.52;7.05;;;;;;;;;;5068781;28;20652;-72
2024/03/04 13:34:56;;;;;;;11.98;7.15;;;;;;;;;;5068450;28;20273;-72
2024/03/04 13:37:22;;;;;;;13.45;7.28;;;;;;;;;;5065437;28;20189;-72
2024/03/04 13:39:48;;;;;;;14.85;7.18;;;;;;;;;;5059678;28;20221;-72
2024/03/04 13:42:14;;;;;;;13.13;6.75;;;;;;;;;;5055911;28;20304;-72
2024/03/04 13:44:43;;;;;;;10.88;5.75;;;;;;;;;;5062614;28;20238;-73
2024/03/04 13:47:09;;;;;;;17.35;6.63;;;;;;;;;;5050110;28;20194;-72
2024/03/04 13:49:34;;;;;;;13.40;7.20;;;;;;;;;;5059411;28;20195;-72
2024/03/04 13:52:00;;;;;;;14.05;7.45;;;;;;;;;;5072650;28;20573;-72
2024/03/04 13:54:26;;;;;;;15.43;6.18;;;;;;;;;;5073492;28;20267;-72
2024/03/04 13:56:52;;;;;;;14.13;6.45;;;;;;;;;;5071870;28;20245;-72
2024/03/04 13:59:18;;;;;;;15.77;7.05;;;;;;;;;;5071018;28;20241;-71
2024/03/04 14:01:45;;;;;;;11.73;6.38;;;;;;;;;;5073913;28;20284;-72
2024/03/04 14:04:10;;;;;;;11.75;6.32;;;;;;;;;;5069616;28;20177;-72
2024/03/04 14:06:35;;;;;;;11.10;6.38;;;;;;;;;;5072900;28;20191;-73
2024/03/04 14:09:01;;;;;;;14.43;6.82;;;;;;;;;;5073535;28;20273;-72
2024/03/04 14:11:26;;;;;;;15.60;6.45;;;;;;;;;;5075985;28;20214;-72